Time;durP1;ratioP1;P1;durP2;ratioP2;P2;SDS_P1;SDS_P2;PMS_P1;PMS_P2;Temp;Humidity;BMP_temperature;BMP_pressure;BME280_temperature;BME280_humidity;BME280_pressure;Samples;Min_cycle;Max_cycle;Signal;HPM_P1;HPM_P2
2022/10/16 00:00:54;;;;;;;1.87;0.90;;;;;;;15.48;100.00;100031.38;5079330;28;20212;-76
2022/10/16 00:03:19;;;;;;;0.70;0.70;;;;;;;15.49;100.00;100038.28;5085648;28;20254;-76
2022/10/16 00:05:44;;;;;;;1.37;1.10;;;;;;;15.51;100.00;100044.31;5085455;28;20274;-76
2022/10/16 00:08:11;;;;;;;2.67;1.10;;;;;;;15.52;100.00;100039.03;5083221;28;20699;-76
2022/10/16 00:10:37;;;;;;;1.07;1.00;;;;;;;15.53;100.00;100040.75;5078841;28;20209;-77
2022/10/16 00:13:03;;;;;;;0.97;0.73;;;;;;;15.56;100.00;100034.59;5088361;28;20189;-76
2022/10/16 00:15:29;;;;;;;1.63;1.00;;;;;;;15.58;100.00;100031.91;5074654;28;20711;-76
2022/10/16 00:17:55;;;;;;;1.27;1.07;;;;;;;15.60;100.00;100025.75;5082748;28;20180;-75
2022/10/16 00:20:20;;;;;;;1.77;0.90;;;;;;;15.61;100.00;100031.81;5081636;28;20655;-76
2022/10/16 00:22:45;;;;;;;1.77;0.70;;;;;;;15.62;100.00;100026.53;5076873;28;20200;-76
2022/10/16 00:25:11;;;;;;;0.87;0.87;;;;;;;15.62;100.00;100029.16;5078940;28;20182;-76
2022/10/16 00:27:36;;;;;;;0.80;0.80;;;;;;;15.61;100.00;100026.59;5078958;28;20210;-76
2022/10/16 00:30:03;;;;;;;1.00;0.90;;;;;;;15.59;100.00;100018.81;5085357;28;20856;-75
2022/10/16 00:32:28;;;;;;;0.80;0.80;;;;;;;15.58;100.00;100019.72;5077364;28;20309;-75
2022/10/16 00:34:56;;;;;;;0.90;0.90;;;;;;;15.58;100.00;100013.66;5083099;28;20282;-75
2022/10/16 00:37:22;;;;;;;0.90;0.80;;;;;;;15.59;100.00;100020.59;5082700;28;20661;-76
2022/10/16 00:39:47;;;;;;;0.77;0.77;;;;;;;15.58;100.00;100022.31;5076974;28;20305;-75
2022/10/16 00:42:16;;;;;;;0.97;0.87;;;;;;;15.58;100.00;100022.31;5082562;28;20174;-77
2022/10/16 00:44:59;;;;;;;1.20;1.00;;;;;;;15.60;100.00;100024.91;5082605;28;20178;-78
2022/10/16 00:47:30;;;;;;;1.20;1.10;;;;;;;15.59;100.00;100024.03;5082305;28;20254;-75
2022/10/16 00:50:29;;;;;;;1.80;0.90;;;;;;;15.58;100.00;100024.94;5080325;28;20681;-76
2022/10/16 00:52:56;;;;;;;1.33;1.10;;;;;;;15.55;100.00;100036.34;5082002;28;20182;-76
2022/10/16 00:55:22;;;;;;;1.03;1.03;;;;;;;15.55;100.00;100051.16;5078274;28;20593;-78
2022/10/16 00:57:49;;;;;;;1.17;1.07;;;;;;;15.55;100.00;100045.94;5082294;28;20688;-77
2022/10/16 01:00:21;;;;;;;0.97;0.93;;;;;;;15.56;100.00;100039.81;5083428;28;20708;-75
2022/10/16 01:02:58;;;;;;;1.20;1.10;;;;;;;15.58;100.00;100044.97;5089318;28;20227;-76
2022/10/16 01:05:30;;;;;;;1.03;0.90;;;;;;;15.57;100.00;100045.88;5080179;28;20236;-76
2022/10/16 01:08:04;;;;;;;1.00;0.93;;;;;;;15.58;100.00;100050.19;5078814;28;20217;-75
2022/10/16 01:11:17;;;;;;;1.50;1.17;;;;;;;15.58;100.00;100051.00;5099427;28;20222;-76
2022/10/16 01:13:48;;;;;;;0.93;0.93;;;;;;;15.58;100.00;100058.00;5085201;28;20284;-75
2022/10/16 01:16:22;;;;;;;1.30;1.10;;;;;;;15.57;100.00;100053.69;5083469;28;20180;-76
2022/10/16 01:19:19;;;;;;;1.17;1.00;;;;;;;15.56;100.00;100052.84;5088901;28;20787;-75
2022/10/16 01:21:48;;;;;;;1.47;1.37;;;;;;;15.57;100.00;100056.28;5086704;28;20319;-75
2022/10/16 01:24:47;;;;;;;1.53;1.03;;;;;;;15.57;100.00;100062.38;5082404;28;20206;-77
2022/10/16 01:27:25;;;;;;;0.90;0.80;;;;;;;15.57;100.00;100058.91;5076232;28;20215;-76
2022/10/16 01:30:31;;;;;;;1.30;1.00;;;;;;;15.55;100.00;100051.97;5081851;28;20238;-76
2022/10/16 01:33:34;;;;;;;1.60;1.00;;;;;;;15.54;100.00;100052.03;5056486;28;20183;-76
2022/10/16 01:36:06;;;;;;;0.90;0.90;;;;;;;15.52;100.00;100049.47;5031315;28;20199;-77
2022/10/16 01:38:36;;;;;;;0.83;0.83;;;;;;;15.51;100.00;100042.53;5072349;28;20209;-76
2022/10/16 01:41:09;;;;;;;2.17;0.90;;;;;;;15.50;100.00;100033.00;5076632;28;20291;-76
2022/10/16 01:43:43;;;;;;;1.60;1.20;;;;;;;15.49;100.00;100038.28;5083765;28;20228;-77
2022/10/16 01:46:10;;;;;;;1.60;1.00;;;;;;;15.47;100.00;100033.16;5081043;28;20246;-76
2022/10/16 01:48:36;;;;;;;2.57;1.20;;;;;;;15.47;100.00;100029.66;5083421;28;20190;-76
2022/10/16 01:51:13;;;;;;;0.80;0.80;;;;;;;15.46;100.00;100022.75;5074475;28;20209;-77
2022/10/16 01:53:41;;;;;;;2.57;1.10;;;;;;;15.44;100.00;100024.53;5076728;28;20185;-76
2022/10/16 01:56:11;;;;;;;1.13;0.90;;;;;;;15.43;100.00;100025.47;5075131;28;20178;-76
2022/10/16 01:58:43;;;;;;;1.37;1.27;;;;;;;15.41;100.00;100027.28;5081595;28;20749;-75
2022/10/16 02:01:11;;;;;;;1.77;1.00;;;;;;;15.37;100.00;100034.31;5084082;28;20619;-76
2022/10/16 02:03:42;;;;;;;1.33;1.13;;;;;;;15.34;100.00;100035.28;5075947;28;20882;-76
2022/10/16 02:06:07;;;;;;;1.20;1.10;;;;;;;15.28;100.00;100043.31;5076416;28;20189;-76
2022/10/16 02:08:35;;;;;;;1.50;1.13;;;;;;;15.26;100.00;100042.53;5081460;28;20219;-76
2022/10/16 02:11:01;;;;;;;1.17;1.07;;;;;;;15.22;100.00;100048.72;5082498;28;20205;-76
2022/10/16 02:13:38;;;;;;;1.17;1.10;;;;;;;15.21;100.00;100044.41;5076247;28;20189;-76
2022/10/16 02:16:04;;;;;;;2.10;1.17;;;;;;;15.17;100.00;100051.50;5073321;28;20216;-76
2022/10/16 02:18:30;;;;;;;2.30;1.27;;;;;;;15.15;100.00;100058.50;5076154;28;20248;-76
2022/10/16 02:21:06;;;;;;;1.47;1.37;;;;;;;15.14;100.00;100061.13;5075877;28;20259;-77
2022/10/16 02:23:35;;;;;;;1.30;1.20;;;;;;;15.12;100.00;100065.56;5076847;28;20193;-76
2022/10/16 02:26:06;;;;;;;1.53;1.27;;;;;;;15.09;100.00;100059.56;5078237;28;20189;-76
2022/10/16 02:28:47;;;;;;;2.27;1.13;;;;;;;15.07;100.00;100053.53;5075318;28;20300;-76
2022/10/16 02:31:18;;;;;;;1.53;1.10;;;;;;;15.05;100.00;100050.13;5075531;28;20570;-76
2022/10/16 02:33:46;;;;;;;1.20;1.10;;;;;;;15.04;100.00;100058.00;5074145;28;20186;-76
2022/10/16 02:36:11;;;;;;;1.30;1.20;;;;;;;15.01;100.00;100056.31;5075097;28;20227;-76
2022/10/16 02:38:38;;;;;;;1.47;1.20;;;;;;;14.99;100.00;100059.88;5070660;28;20678;-77
2022/10/16 02:41:04;;;;;;;1.57;1.10;;;;;;;14.97;100.00;100054.72;5077305;28;20284;-76
2022/10/16 02:43:29;;;;;;;3.60;1.57;;;;;;;14.96;100.00;100054.75;5075673;28;20602;-76
2022/10/16 02:45:55;;;;;;;2.23;1.70;;;;;;;14.94;100.00;100047.00;5071177;28;20186;-76
2022/10/16 02:48:20;;;;;;;2.83;1.57;;;;;;;14.91;100.00;100063.56;5078468;28;20214;-76
2022/10/16 02:50:45;;;;;;;2.00;1.63;;;;;;;14.89;100.00;100062.78;5071851;28;20214;-76
2022/10/16 02:53:10;;;;;;;2.10;1.63;;;;;;;14.89;100.00;100060.19;5076152;28;20567;-77
2022/10/16 02:55:36;;;;;;;3.23;1.80;;;;;;;14.88;100.00;100061.06;5080690;28;20192;-76
2022/10/16 02:58:01;;;;;;;2.07;1.60;;;;;;;14.88;100.00;100063.69;5077731;28;20185;-77
2022/10/16 03:00:26;;;;;;;2.57;1.90;;;;;;;14.87;100.00;100066.31;5072181;28;20639;-77
2022/10/16 03:02:52;;;;;;;2.87;1.57;;;;;;;14.87;100.00;100074.13;5077074;28;20556;-76
2022/10/16 03:05:17;;;;;;;4.50;1.77;;;;;;;14.82;100.00;100071.66;5076192;28;20657;-76
2022/10/16 03:07:42;;;;;;;3.13;1.40;;;;;;;14.81;100.00;100072.56;5074139;28;20728;-77
2022/10/16 03:10:08;;;;;;;3.27;1.53;;;;;;;14.79;100.00;100076.97;5077643;28;20231;-77
2022/10/16 03:12:34;;;;;;;2.50;1.43;;;;;;;14.77;100.00;100079.63;5073605;28;20922;-76
2022/10/16 03:14:59;;;;;;;1.50;1.30;;;;;;;14.75;100.00;100083.16;5075857;28;20176;-76
2022/10/16 03:17:25;;;;;;;1.53;1.37;;;;;;;14.73;100.00;100079.78;5077116;28;20211;-77
2022/10/16 03:19:50;;;;;;;1.63;1.30;;;;;;;14.73;100.00;100077.16;5078356;28;20707;-77
2022/10/16 03:22:16;;;;;;;3.93;1.50;;;;;;;14.72;100.00;100073.69;5078038;28;20185;-76
2022/10/16 03:24:41;;;;;;;2.03;1.20;;;;;;;14.72;100.00;100076.28;5076805;28;20244;-76
2022/10/16 03:27:07;;;;;;;3.87;1.40;;;;;;;14.71;100.00;100078.97;5078421;28;20853;-77
2022/10/16 03:29:32;;;;;;;2.87;1.10;;;;;;;14.71;100.00;100074.59;5079643;28;20200;-76
2022/10/16 03:31:58;;;;;;;2.00;1.37;;;;;;;14.71;100.00;100079.78;5075967;28;20506;-76
2022/10/16 03:34:24;;;;;;;1.37;1.20;;;;;;;14.70;100.00;100083.28;5076499;28;20177;-76
2022/10/16 03:36:49;;;;;;;1.37;1.20;;;;;;;14.69;100.00;100078.97;5066687;28;20177;-77
2022/10/16 03:39:15;;;;;;;1.40;1.20;;;;;;;14.70;100.00;100087.66;5070473;28;20197;-76
2022/10/16 03:41:40;;;;;;;2.87;1.30;;;;;;;14.70;100.00;100082.47;5068265;28;20271;-77
2022/10/16 03:44:08;;;;;;;1.50;1.10;;;;;;;14.71;100.00;100084.16;5074460;28;20275;-75
2022/10/16 03:46:33;;;;;;;2.33;1.20;;;;;;;14.70;100.00;100082.47;5073102;28;20241;-76
2022/10/16 03:48:59;;;;;;;1.23;1.13;;;;;;;14.70;100.00;100078.09;5076574;28;20212;-76
2022/10/16 03:51:24;;;;;;;1.73;1.07;;;;;;;14.70;100.00;100079.84;5075860;28;20206;-76
2022/10/16 03:53:49;;;;;;;1.23;0.90;;;;;;;14.69;100.00;100075.53;5076045;28;20677;-77
2022/10/16 03:56:15;;;;;;;3.03;1.13;;;;;;;14.68;100.00;100073.81;5075816;28;20181;-76
2022/10/16 03:58:40;;;;;;;0.93;0.83;;;;;;;14.67;100.00;100074.69;5083320;28;20216;-77
2022/10/16 04:01:05;;;;;;;1.43;1.10;;;;;;;14.66;100.00;100073.84;5082290;28;20201;-77
2022/10/16 04:03:31;;;;;;;0.90;0.90;;;;;;;14.64;100.00;100076.47;5071890;28;20185;-76
2022/10/16 04:05:56;;;;;;;1.07;0.93;;;;;;;14.64;100.00;100079.09;5074087;28;20321;-76
2022/10/16 04:08:21;;;;;;;3.23;1.43;;;;;;;14.61;100.00;100079.16;5077212;28;20206;-77
2022/10/16 04:10:47;;;;;;;2.00;0.90;;;;;;;14.60;100.00;100085.28;5078589;28;20296;-76
2022/10/16 04:13:12;;;;;;;1.40;1.30;;;;;;;14.59;100.00;100083.59;5080697;28;20251;-76
2022/10/16 04:15:38;;;;;;;2.23;1.20;;;;;;;14.59;100.00;100093.16;5078000;28;20193;-76
2022/10/16 04:18:04;;;;;;;3.37;1.27;;;;;;;14.56;100.00;100094.09;5079240;28;20177;-76
2022/10/16 04:20:30;;;;;;;2.10;1.00;;;;;;;14.54;100.00;100103.69;5080450;28;20378;-76
2022/10/16 04:22:55;;;;;;;1.40;1.13;;;;;;;14.53;100.00;100101.13;5081350;28;20680;-77
2022/10/16 04:25:23;;;;;;;1.60;1.10;;;;;;;14.51;100.00;100105.53;5079252;28;20189;-76
2022/10/16 04:27:49;;;;;;;1.50;1.20;;;;;;;14.51;100.00;100110.75;5079953;28;20212;-75
2022/10/16 04:30:14;;;;;;;2.50;1.07;;;;;;;14.53;100.00;100116.75;5073451;28;20710;-76
2022/10/16 04:32:40;;;;;;;2.47;1.20;;;;;;;14.54;100.00;100110.63;5078116;28;20453;-76
2022/10/16 04:35:06;;;;;;;1.40;1.30;;;;;;;14.58;100.00;100120.94;5077347;28;20242;-76
2022/10/16 04:37:32;;;;;;;1.30;1.13;;;;;;;14.61;100.00;100117.41;5082173;28;20188;-76
2022/10/16 04:39:57;;;;;;;1.10;1.00;;;;;;;14.63;100.00;100126.03;5081365;28;20210;-76
2022/10/16 04:42:23;;;;;;;3.20;1.40;;;;;;;14.67;100.00;100117.19;5078961;28;20177;-76
2022/10/16 04:44:48;;;;;;;2.27;1.40;;;;;;;14.70;100.00;100121.53;5077980;28;20205;-76
2022/10/16 04:47:13;;;;;;;1.97;1.30;;;;;;;14.72;100.00;100123.19;5076876;28;20730;-77
2022/10/16 04:49:39;;;;;;;2.50;1.17;;;;;;;14.73;100.00;100118.84;5078004;28;20196;-76
2022/10/16 04:52:04;;;;;;;3.43;1.30;;;;;;;14.73;100.00;100126.66;5080389;28;20181;-76
2022/10/16 04:54:29;;;;;;;1.97;1.17;;;;;;;14.72;100.00;100128.38;5076757;28;20197;-76
2022/10/16 04:56:55;;;;;;;1.27;1.07;;;;;;;14.73;100.00;100129.25;5082205;28;20268;-76
2022/10/16 04:59:21;;;;;;;1.43;1.30;;;;;;;14.72;100.00;100130.16;5077528;28;20201;-77
2022/10/16 05:01:46;;;;;;;2.03;1.20;;;;;;;14.72;100.00;100140.56;5075637;28;20211;-75
2022/10/16 05:04:12;;;;;;;1.10;1.03;;;;;;;14.72;100.00;100137.97;5078095;28;20185;-75
2022/10/16 05:06:38;;;;;;;1.93;1.37;;;;;;;14.70;100.00;100135.38;5078089;28;20680;-75
2022/10/16 05:09:04;;;;;;;1.80;1.47;;;;;;;14.72;100.00;100135.38;5077400;28;20597;-76
2022/10/16 05:11:30;;;;;;;3.07;1.30;;;;;;;14.71;100.00;100131.88;5079627;28;20636;-76
2022/10/16 05:13:55;;;;;;;1.63;1.30;;;;;;;14.71;100.00;100141.47;5080859;28;20237;-76
2022/10/16 05:16:20;;;;;;;1.23;1.13;;;;;;;14.70;100.00;100142.38;5084043;28;20189;-75
2022/10/16 05:18:45;;;;;;;1.50;1.33;;;;;;;14.68;100.00;100142.38;5077229;28;20214;-75
2022/10/16 05:21:11;;;;;;;1.30;1.20;;;;;;;14.68;100.00;100145.00;5078303;28;20253;-76
2022/10/16 05:23:36;;;;;;;1.30;1.20;;;;;;;14.70;100.00;100147.56;5079184;28;20203;-75
2022/10/16 05:26:01;;;;;;;2.77;1.33;;;;;;;14.70;100.00;100153.63;5072246;28;20189;-75
2022/10/16 05:28:29;;;;;;;1.97;1.23;;;;;;;14.70;100.00;100145.81;5080149;28;20712;-75
2022/10/16 05:30:55;;;;;;;1.10;1.00;;;;;;;14.70;100.00;100145.81;5077252;28;20220;-74
2022/10/16 05:33:22;;;;;;;1.73;1.20;;;;;;;14.71;100.00;100142.31;5077854;28;20553;-74
2022/10/16 05:35:47;;;;;;;1.83;1.10;;;;;;;14.70;100.00;100142.38;5077228;28;20196;-75
2022/10/16 05:38:13;;;;;;;1.93;1.00;;;;;;;14.70;100.00;100144.97;5080357;28;20612;-75
2022/10/16 05:40:39;;;;;;;1.60;1.30;;;;;;;14.70;100.00;100153.63;5076615;28;20217;-75
2022/10/16 05:43:04;;;;;;;2.03;1.20;;;;;;;14.70;100.00;100147.56;5080171;28;20279;-75
2022/10/16 05:45:30;;;;;;;1.20;1.10;;;;;;;14.71;100.00;100146.69;5070252;28;20195;-76
2022/10/16 05:47:55;;;;;;;1.67;1.47;;;;;;;14.71;100.00;100149.28;5078265;28;20351;-75
2022/10/16 05:50:20;;;;;;;2.20;1.53;;;;;;;14.70;100.00;100148.41;5080209;28;20207;-74
2022/10/16 05:52:46;;;;;;;3.13;1.57;;;;;;;14.71;100.00;100141.47;5079862;28;21014;-75
2022/10/16 05:55:11;;;;;;;2.10;1.73;;;;;;;14.69;100.00;100146.69;5076843;28;20669;-75
2022/10/16 05:57:36;;;;;;;1.57;1.40;;;;;;;14.68;100.00;100145.00;5079848;28;20575;-75
2022/10/16 06:00:03;;;;;;;1.97;1.60;;;;;;;14.67;100.00;100156.28;5077868;28;20850;-75
2022/10/16 06:02:28;;;;;;;2.37;1.63;;;;;;;14.66;100.00;100170.22;5073358;28;20190;-75
2022/10/16 06:04:53;;;;;;;3.30;1.67;;;;;;;14.64;100.00;100170.25;5080311;28;20433;-75
2022/10/16 06:07:19;;;;;;;2.60;2.33;;;;;;;14.63;100.00;100170.31;5079973;28;20217;-75
2022/10/16 06:09:48;;;;;;;3.03;2.73;;;;;;;14.62;100.00;100177.25;5077257;28;20512;-76
2022/10/16 06:12:13;;;;;;;3.93;3.47;;;;;;;14.62;100.00;100184.22;5084200;28;20185;-74
2022/10/16 06:14:38;;;;;;;4.40;2.90;;;;;;;14.61;100.00;100174.69;5078687;28;20548;-75
2022/10/16 06:17:04;;;;;;;3.77;3.47;;;;;;;14.59;100.00;100166.94;5079571;28;20177;-75
2022/10/16 06:19:29;;;;;;;4.30;3.43;;;;;;;14.59;100.00;100158.25;5075302;28;20686;-75
2022/10/16 06:21:54;;;;;;;4.27;2.97;;;;;;;14.59;100.00;100153.91;5080606;28;20409;-75
2022/10/16 06:24:20;;;;;;;3.13;2.83;;;;;;;14.60;100.00;100163.41;5076519;28;20568;-74
2022/10/16 06:26:45;;;;;;;3.20;2.90;;;;;;;14.61;100.00;100170.31;5076668;28;20251;-74
2022/10/16 06:29:11;;;;;;;2.93;2.50;;;;;;;14.62;100.00;100176.41;5082296;28;20223;-75
2022/10/16 06:31:36;;;;;;;12.30;9.60;;;;;;;14.64;100.00;100180.66;5087477;28;20266;-75
2022/10/16 06:34:01;;;;;;;34.00;28.80;;;;;;;14.68;100.00;100181.47;5080797;28;20197;-74
2022/10/16 06:36:27;;;;;;;25.53;21.67;;;;;;;14.73;100.00;100186.56;5082330;28;20188;-75
2022/10/16 06:38:53;;;;;;;17.43;15.37;;;;;;;14.76;100.00;100176.91;5079246;28;20255;-75
2022/10/16 06:41:20;;;;;;;18.83;16.90;;;;;;;14.81;100.00;100181.97;5079890;28;20207;-75
2022/10/16 06:43:47;;;;;;;18.20;16.30;;;;;;;14.85;100.00;100181.00;5076159;28;20277;-74
2022/10/16 06:46:15;;;;;;;12.90;11.60;;;;;;;14.89;100.00;100173.94;5080321;28;20195;-75
2022/10/16 06:48:41;;;;;;;11.20;9.00;;;;;;;14.92;100.00;100173.88;5077460;28;20271;-75
2022/10/16 06:51:09;;;;;;;8.67;7.77;;;;;;;14.95;100.00;100173.78;5075457;28;20320;-75
2022/10/16 06:53:37;;;;;;;6.13;5.53;;;;;;;14.99;100.00;100184.97;5072400;28;20212;-75
2022/10/16 06:56:16;;;;;;;5.43;4.93;;;;;;;15.03;100.00;100184.81;5073429;28;20185;-75
2022/10/16 06:58:43;;;;;;;4.13;3.57;;;;;;;15.07;100.00;100189.06;5073996;28;20247;-75
2022/10/16 07:01:09;;;;;;;4.10;3.37;;;;;;;15.11;100.00;100184.59;5080880;28;20631;-76
2022/10/16 07:03:40;;;;;;;3.27;2.40;;;;;;;15.16;100.00;100192.28;5081292;28;20219;-76
2022/10/16 07:06:07;;;;;;;3.60;2.20;;;;;;;15.22;100.00;100194.72;5077216;28;20680;-75
2022/10/16 07:08:37;;;;;;;3.57;2.00;;;;;;;15.32;100.00;100193.53;5078195;28;21197;-75
2022/10/16 07:11:05;;;;;;;2.07;1.90;;;;;;;15.44;100.00;100200.13;5071774;28;20235;-76
2022/10/16 07:13:33;;;;;;;2.60;2.40;;;;;;;15.55;100.00;100203.25;5079467;28;20295;-76
2022/10/16 07:16:04;;;;;;;2.50;2.30;;;;;;;15.67;100.00;100203.75;5075553;28;20205;-75
2022/10/16 07:18:32;;;;;;;5.00;4.53;;;;;;;15.77;100.00;100209.56;5075571;28;20177;-76
2022/10/16 07:21:06;;;;;;;5.30;4.97;;;;;;;15.86;100.00;100211.91;5073189;28;20688;-77
2022/10/16 07:23:32;;;;;;;4.63;4.33;;;;;;;15.93;100.00;100215.19;5075890;28;20626;-76
2022/10/16 07:25:57;;;;;;;4.57;4.27;;;;;;;16.03;100.00;100215.75;5073755;28;20197;-75
2022/10/16 07:28:22;;;;;;;3.77;3.57;;;;;;;16.11;100.00;100217.16;5079659;28;20289;-76
2022/10/16 07:30:48;;;;;;;3.63;3.40;;;;;;;16.21;100.00;100222.09;5079603;28;20255;-75
2022/10/16 07:33:13;;;;;;;2.60;2.40;;;;;;;16.26;100.00;100218.44;5087108;28;20217;-75
2022/10/16 07:35:47;;;;;;;2.33;2.17;;;;;;;16.30;100.00;100221.78;5082048;28;20558;-75
2022/10/16 07:38:13;;;;;;;2.20;2.00;;;;;;;16.34;100.00;100233.84;5075392;28;20207;-75
2022/10/16 07:40:38;;;;;;;3.17;1.83;;;;;;;16.42;100.00;100239.63;5080605;28;20352;-74
2022/10/16 07:43:05;;;;;;;2.13;1.77;;;;;;;16.50;100.00;100238.53;5073773;28;20655;-74
2022/10/16 07:45:30;;;;;;;1.60;1.50;;;;;;;16.59;100.00;100248.66;5071707;28;20191;-74
2022/10/16 07:47:55;;;;;;;1.87;1.50;;;;;;;16.67;100.00;100254.47;5073211;28;20211;-75
2022/10/16 07:50:20;;;;;;;1.50;1.40;;;;;;;16.73;100.00;100259.47;5076902;28;20937;-75
2022/10/16 07:52:46;;;;;;;1.33;1.20;;;;;;;16.80;100.00;100261.88;5081569;28;20207;-74
2022/10/16 07:55:11;;;;;;;2.47;1.57;;;;;;;16.90;100.00;100252.81;5081344;28;20210;-73
2022/10/16 07:57:36;;;;;;;1.83;1.23;;;;;;;16.98;100.00;100266.50;5074553;28;20241;-75
2022/10/16 08:00:02;;;;;;;3.03;1.97;;;;;;;17.03;100.00;100269.78;5072221;28;20290;-74
2022/10/16 08:02:28;;;;;;;2.20;1.63;;;;;;;17.07;100.00;100273.16;5078229;28;20199;-74
2022/10/16 08:04:53;;;;;;;1.63;1.23;;;;;;;17.18;100.00;100275.34;5077626;28;20194;-74
2022/10/16 08:07:18;;;;;;;2.50;1.50;;;;;;;17.32;100.00;100277.47;5075681;28;20302;-74
2022/10/16 08:09:43;;;;;;;1.90;1.47;;;;;;;17.41;100.00;100263.19;5079032;28;20204;-74
2022/10/16 08:12:10;;;;;;;3.27;1.73;;;;;;;17.50;100.00;100268.94;5074730;28;20192;-74
2022/10/16 08:14:36;;;;;;;2.67;1.40;;;;;;;17.61;100.00;100267.66;5074418;28;20588;-75
2022/10/16 08:17:02;;;;;;;1.63;1.20;;;;;;;17.69;100.00;100255.16;5068437;28;20193;-74
2022/10/16 08:19:27;;;;;;;1.53;1.43;;;;;;;17.79;100.00;100255.63;5075835;28;20307;-75
2022/10/16 08:21:52;;;;;;;1.80;1.30;;;;;;;17.87;100.00;100245.72;5075440;28;20734;-75
2022/10/16 08:24:18;;;;;;;2.20;1.60;;;;;;;17.95;100.00;100256.72;5073761;28;20197;-74
2022/10/16 08:26:43;;;;;;;5.93;2.50;;;;;;;17.95;100.00;100254.09;5075669;28;20201;-75
2022/10/16 08:29:08;;;;;;;3.30;1.87;;;;;;;17.89;100.00;100259.59;5073854;28;20940;-75
2022/10/16 08:31:34;;;;;;;2.73;1.53;;;;;;;17.88;100.00;100267.50;5075736;28;20219;-75
2022/10/16 08:33:59;;;;;;;1.83;1.57;;;;;;;17.88;100.00;100270.97;5074673;28;20185;-74
2022/10/16 08:36:25;;;;;;;1.53;1.33;;;;;;;17.94;100.00;100275.94;5074422;28;20195;-74
2022/10/16 08:38:50;;;;;;;3.13;1.50;;;;;;;18.07;100.00;100278.13;5069412;28;20690;-75
2022/10/16 08:41:21;;;;;;;2.03;1.50;;;;;;;18.24;100.00;100286.13;5070842;28;20296;-74
2022/10/16 08:44:05;;;;;;;2.10;1.20;;;;;;;18.42;100.00;100296.78;5066499;28;22618;-74
2022/10/16 08:47:00;;;;;;;2.53;1.40;;;;;;;18.72;100.00;100299.88;5072214;28;20294;-75
2022/10/16 08:49:27;;;;;;;1.40;0.90;;;;;;;19.07;100.00;100303.66;5077406;28;20599;-74
2022/10/16 08:51:52;;;;;;;1.63;1.20;;;;;;;19.39;100.00;100304.88;5073091;28;20199;-75
2022/10/16 08:54:30;;;;;;;1.43;1.20;;;;;;;19.58;100.00;100310.13;5078300;28;20197;-75
2022/10/16 08:57:00;;;;;;;2.60;1.40;;;;;;;19.67;100.00;100302.72;5074076;28;20666;-75
2022/10/16 08:59:26;;;;;;;2.00;1.10;;;;;;;19.72;100.00;100306.84;5068600;28;20193;-74
2022/10/16 09:01:52;;;;;;;1.53;1.17;;;;;;;19.76;100.00;100318.06;5070553;28;20205;-74
2022/10/16 09:04:39;;;;;;;1.20;1.10;;;;;;;19.79;100.00;100320.53;5074166;28;20659;-74
2022/10/16 09:07:16;;;;;;;1.53;1.27;;;;;;;19.84;100.00;100329.03;5079497;28;20696;-75
2022/10/16 09:10:24;;;;;;;0.97;0.93;;;;;;;19.94;100.00;100332.13;5075441;28;20215;-75
2022/10/16 09:13:17;;;;;;;1.27;1.17;;;;;;;20.04;100.00;100333.38;5075433;28;20568;-75
2022/10/16 09:15:51;;;;;;;3.13;1.23;;;;;;;20.13;100.00;100344.38;5072913;28;20185;-75
2022/10/16 09:18:33;;;;;;;1.40;0.93;;;;;;;20.20;100.00;100336.13;5071823;28;20188;-75
2022/10/16 09:20:59;;;;;;;1.50;1.10;;;;;;;20.23;100.00;100341.25;5069896;28;20697;-75
2022/10/16 09:23:30;;;;;;;1.00;0.90;;;;;;;20.23;100.00;100351.75;5071393;28;20263;-75
2022/10/16 09:25:58;;;;;;;1.47;0.97;;;;;;;20.20;100.00;100346.63;5073469;28;20193;-74
2022/10/16 09:28:24;;;;;;;1.07;0.97;;;;;;;20.22;100.00;100354.44;5071011;28;20215;-75
2022/10/16 09:30:50;;;;;;;1.87;1.23;;;;;;;20.17;100.00;100357.28;5070839;28;20803;-74
2022/10/16 09:33:18;;;;;;;1.50;1.23;;;;;;;20.18;100.00;100371.28;5078115;28;20190;-74
2022/10/16 09:35:47;;;;;;;0.90;0.90;;;;;;;20.24;100.00;100361.34;5069159;28;20250;-75
2022/10/16 09:38:31;;;;;;;1.30;1.20;;;;;;;20.31;100.00;100371.53;5075212;28;20312;-75
2022/10/16 09:40:59;;;;;;;1.93;1.00;;;;;;;20.33;100.00;100372.31;5077278;28;20595;-75
2022/10/16 09:43:31;;;;;;;1.20;1.10;;;;;;;20.34;100.00;100374.88;5069527;28;20288;-75
2022/10/16 09:46:03;;;;;;;1.10;1.00;;;;;;;20.33;100.00;100373.19;5073295;28;20616;-75
2022/10/16 09:48:39;;;;;;;1.33;1.23;;;;;;;20.35;100.00;100375.72;5075524;28;20255;-75
2022/10/16 09:51:14;;;;;;;1.03;0.93;;;;;;;20.36;100.00;100382.69;5071201;28;20208;-75
2022/10/16 09:53:42;;;;;;;1.83;1.20;;;;;;;20.39;100.00;100383.38;5074976;28;20192;-75
2022/10/16 09:56:13;;;;;;;1.97;1.10;;;;;;;20.48;100.00;100379.47;5071910;28;20182;-75
2022/10/16 09:58:42;;;;;;;1.47;1.37;;;;;;;20.57;100.00;100386.03;5075968;28;20243;-75
2022/10/16 10:01:14;;;;;;;1.13;1.03;;;;;;;20.61;100.00;100377.09;5078619;28;20262;-75
2022/10/16 10:03:42;;;;;;;1.17;1.07;;;;;;;20.68;100.00;100390.78;5075896;28;20185;-75
2022/10/16 10:06:18;;;;;;;2.03;1.00;;;;;;;20.73;100.00;100393.16;5079574;28;20187;-75
2022/10/16 10:08:58;;;;;;;1.27;1.17;;;;;;;20.80;100.00;100392.81;5073529;28;20197;-75
2022/10/16 10:11:40;;;;;;;1.50;1.30;;;;;;;20.86;100.00;100382.00;5068420;28;20758;-75
2022/10/16 10:14:25;;;;;;;1.30;1.20;;;;;;;20.91;100.00;100388.78;5066871;28;20197;-74
2022/10/16 10:17:01;;;;;;;1.30;1.20;;;;;;;20.92;100.00;100394.00;5064155;28;20202;-75
2022/10/16 10:19:27;;;;;;;1.90;1.13;;;;;;;20.92;100.00;100398.38;5069458;28;20208;-75
2022/10/16 10:21:52;;;;;;;1.27;1.03;;;;;;;20.85;100.00;100401.34;5070040;28;20798;-74
2022/10/16 10:24:19;;;;;;;1.20;1.10;;;;;;;20.78;100.00;100399.09;5064552;28;20212;-74
2022/10/16 10:26:51;;;;;;;2.03;1.27;;;;;;;20.72;100.00;100402.84;5069073;28;20674;-75
2022/10/16 10:29:36;;;;;;;1.07;1.00;;;;;;;20.73;100.00;100398.44;5073357;28;20759;-74
2022/10/16 10:32:31;;;;;;;1.40;1.10;;;;;;;20.69;100.00;100400.38;5076099;28;20185;-74
2022/10/16 10:35:18;;;;;;;0.90;0.90;;;;;;;20.59;100.00;100397.34;5066498;28;20211;-77
2022/10/16 10:37:56;;;;;;;1.40;1.13;;;;;;;20.42;100.00;100398.16;5067482;28;20216;-75
2022/10/16 10:40:33;;;;;;;1.30;1.10;;;;;;;20.36;100.00;100393.19;5073127;28;20212;-75
2022/10/16 10:43:04;;;;;;;1.57;1.10;;;;;;;20.38;100.00;100391.34;5074155;28;20242;-75
2022/10/16 10:45:43;;;;;;;1.97;1.50;;;;;;;20.51;100.00;100388.97;5069611;28;20267;-74
2022/10/16 10:48:32;;;;;;;1.10;1.00;;;;;;;20.67;100.00;100387.28;5067739;28;20278;-74
2022/10/16 10:51:05;;;;;;;1.10;1.00;;;;;;;20.88;100.00;100396.81;5068713;28;20212;-75
2022/10/16 10:53:41;;;;;;;1.60;1.17;;;;;;;21.07;100.00;100402.03;5073524;28;20197;-74
2022/10/16 10:56:25;;;;;;;1.47;1.13;;;;;;;21.21;100.00;100404.81;5070287;28;20186;-74
2022/10/16 10:59:00;;;;;;;1.50;1.30;;;;;;;21.37;100.00;100404.00;5076412;28;20185;-75
2022/10/16 11:01:40;;;;;;;1.33;1.23;;;;;;;21.49;100.00;100400.72;5078077;28;20211;-75
2022/10/16 11:04:28;;;;;;;1.30;1.20;;;;;;;21.57;100.00;100402.94;5075263;28;20234;-73
2022/10/16 11:07:10;;;;;;;1.07;0.97;;;;;;;21.67;100.00;100400.72;5070642;28;20258;-75
2022/10/16 11:09:47;;;;;;;1.40;1.07;;;;;;;21.80;100.00;100401.75;5068726;28;20185;-74
2022/10/16 11:12:20;;;;;;;2.17;1.20;;;;;;;21.91;100.00;100396.72;5064088;28;20311;-74
2022/10/16 11:14:58;;;;;;;2.23;1.20;;;;;;;22.03;100.00;100396.97;5069732;28;20200;-75
2022/10/16 11:17:47;;;;;;;1.30;1.20;;;;;;;22.14;100.00;100397.25;5071090;28;20197;-75
2022/10/16 11:20:17;;;;;;;1.00;0.90;;;;;;;22.23;100.00;100382.72;5064391;28;20217;-74
2022/10/16 11:22:50;;;;;;;1.33;1.20;;;;;;;22.41;100.00;100378.16;5075301;28;20212;-75
2022/10/16 11:25:24;;;;;;;2.03;1.27;;;;;;;22.61;100.00;100382.31;5070937;28;20243;-75
2022/10/16 11:27:56;;;;;;;1.20;1.10;;;;;;;22.74;100.00;100371.91;5070629;28;20296;-75